Airport View

Enter AWOS ICAO identifier for current METAR.

ex. KFNL

KFKN 202315Z AUTO 00000KT 10SM BKN030 OVC040 21/21 A3023 RMK AO2 T02090205

20 Oct 2020 23:19

Frequency: 124.675

Phone: 757-562-8765

Other Area AWOS: KSFQ - KAKQ - KPVG - KASJ

TAF KFAF 201800Z 2018/2124 VRB06KT 9999 FEW007 SCT010 QNH3022INS BECMG 2023/2024 VRB06KT 9999 BKN040 QNH3020INS BECMG 2106/2107 VRB06KT 3200 BR BKN006 OVC015 QNH3023INS BECMG 2115/2116 VRB06KT 9999 NSW BKN015 QNH3027INS TX23/2020Z TN18/2109Z